createdAt,value
2016-03-08T07:40:01.245Z,-13.75
2016-03-08T07:40:14.152Z,-13.73
2016-03-08T07:40:27.792Z,-13.63
2016-03-08T07:40:41.342Z,-13.68
2016-03-08T07:40:54.951Z,-13.67
2016-03-08T07:41:08.655Z,-13.65
2016-03-08T07:41:22.233Z,-13.72
2016-03-08T07:41:35.951Z,-13.63
2016-03-08T07:41:48.767Z,-13.63
2016-03-08T07:42:02.408Z,-13.63
2016-03-08T07:42:16.001Z,-13.63
2016-03-08T07:42:29.626Z,-13.6
2016-03-08T07:42:43.411Z,-13.6
2016-03-08T07:42:57.223Z,-13.6
2016-03-08T07:43:11.286Z,-13.54
2016-03-08T07:43:28.036Z,-13.5
2016-03-08T07:43:42.053Z,-13.47
2016-03-08T07:43:55.725Z,-13.48
2016-03-08T07:44:09.413Z,-13.56
2016-03-08T07:44:23.163Z,-13.5
2016-03-08T07:44:36.850Z,-13.54
2016-03-08T07:44:50.665Z,-13.51
2016-03-08T07:45:04.446Z,-13.48
2016-03-08T07:45:18.836Z,-13.47
2016-03-08T07:45:32.696Z,-13.39
2016-03-08T07:45:49.403Z,-13.46
2016-03-08T07:46:02.997Z,-13.48
2016-03-08T07:46:16.809Z,-13.46
2016-03-08T07:46:30.700Z,-13.37
2016-03-08T07:46:44.889Z,-13.37
2016-03-08T07:46:58.655Z,-13.29
2016-03-08T07:47:12.483Z,-13.47
2016-03-08T07:47:26.171Z,-13.35
2016-03-08T07:47:39.889Z,-13.3
2016-03-08T07:47:53.674Z,-13.32
2016-03-08T07:48:07.627Z,-13.21
2016-03-08T07:48:21.189Z,-13.25
2016-03-08T07:48:35.080Z,-13.21
2016-03-08T07:48:49.144Z,-13.35
2016-03-08T07:49:03.519Z,-13.24
2016-03-08T07:49:17.301Z,-13.27
2016-03-08T07:49:31.176Z,-13.18
2016-03-08T07:49:45.132Z,-13.22
2016-03-08T07:49:58.960Z,-13.19
2016-03-08T07:50:12.663Z,-13.11
2016-03-08T07:50:26.413Z,-13.14
2016-03-08T07:50:40.007Z,-13.12
2016-03-08T07:50:53.822Z,-13.03
2016-03-08T07:51:08.088Z,-13.07
2016-03-08T07:51:21.916Z,-13.01
2016-03-08T07:51:35.807Z,-13.03
2016-03-08T07:51:49.574Z,-13.07
2016-03-08T07:52:03.840Z,-13.04
2016-03-08T07:52:17.668Z,-13
2016-03-08T07:52:31.480Z,-13.04
2016-03-08T07:52:45.203Z,-13
2016-03-08T07:52:59.328Z,-12.98
2016-03-08T07:53:16.422Z,-12.98
2016-03-08T07:53:29.781Z,-13.05
2016-03-08T07:53:43.658Z,-12.98
2016-03-08T07:53:57.361Z,-12.97
2016-03-08T07:54:11.127Z,-12.91
2016-03-08T07:54:24.940Z,-12.91
2016-03-08T07:54:41.818Z,-12.9
2016-03-08T07:54:55.646Z,-12.9
2016-03-08T07:55:09.583Z,-12.93
2016-03-08T07:55:23.536Z,-12.8
2016-03-08T07:55:37.536Z,-12.76
2016-03-08T07:55:51.257Z,-12.82
2016-03-08T07:56:05.007Z,-12.83
2016-03-08T07:56:18.835Z,-12.76
2016-03-08T07:56:31.851Z,-12.76
2016-03-08T07:56:45.682Z,-12.76
2016-03-08T07:56:59.526Z,-12.73
2016-03-08T07:57:13.416Z,-12.76
2016-03-08T07:57:30.260Z,-12.77
2016-03-08T07:57:44.029Z,-12.69
2016-03-08T07:57:57.794Z,-12.68
2016-03-08T07:58:11.622Z,-12.77
2016-03-08T07:58:25.388Z,-12.62
2016-03-08T07:58:39.107Z,-12.61
2016-03-08T07:58:52.857Z,-12.73
2016-03-08T07:59:06.685Z,-12.61
2016-03-08T07:59:20.810Z,-12.72
2016-03-08T07:59:34.951Z,-12.66
2016-03-08T07:59:48.735Z,-12.58
2016-03-08T08:00:02.610Z,-12.66
2016-03-08T08:00:16.376Z,-12.55
2016-03-08T08:00:30.219Z,-12.55
2016-03-08T08:00:44.019Z,-12.52
2016-03-08T08:00:57.847Z,-12.61
2016-03-08T08:01:12.238Z,-12.55
2016-03-08T08:01:26.066Z,-12.45
2016-03-08T08:01:39.832Z,-12.43
2016-03-08T08:01:53.599Z,-12.55
2016-03-08T08:02:10.459Z,-12.55
2016-03-08T08:02:24.349Z,-12.45
2016-03-08T08:02:38.177Z,-12.54
2016-03-08T08:02:51.868Z,-12.5
2016-03-08T08:03:05.712Z,-12.5
2016-03-08T08:03:19.524Z,-12.45
2016-03-08T08:03:36.196Z,-12.45
2016-03-08T08:03:50.402Z,-12.43
2016-03-08T08:04:04.480Z,-12.4
2016-03-08T08:04:18.324Z,-12.41
2016-03-08T08:04:31.996Z,-12.37
2016-03-08T08:04:46.107Z,-12.48
2016-03-08T08:04:59.951Z,-12.44
2016-03-08T08:05:13.920Z,-12.43
2016-03-08T08:05:27.623Z,-12.4
2016-03-08T08:05:41.454Z,-12.34
2016-03-08T08:05:55.267Z,-12.35
2016-03-08T08:06:09.048Z,-12.37
2016-03-08T08:06:26.079Z,-12.3
2016-03-08T08:06:39.923Z,-12.32
2016-03-08T08:06:53.816Z,-12.34
2016-03-08T08:07:07.566Z,-12.29
2016-03-08T08:07:24.676Z,-12.35
2016-03-08T08:07:38.363Z,-12.3
2016-03-08T08:07:52.148Z,-12.27
2016-03-08T08:08:05.851Z,-12.32
2016-03-08T08:08:18.804Z,-12.3
2016-03-08T08:08:32.694Z,-12.3
2016-03-08T08:08:46.446Z,-12.23
2016-03-08T08:09:00.353Z,-12.32
2016-03-08T08:09:14.025Z,-12.29
2016-03-08T08:09:27.681Z,-12.3
2016-03-08T08:09:42.012Z,-12.23
2016-03-08T08:09:55.793Z,-12.23
2016-03-08T08:10:09.668Z,-12.25
2016-03-08T08:10:23.496Z,-12.25
2016-03-08T08:10:37.262Z,-12.22
2016-03-08T08:10:51.015Z,-12.22
2016-03-08T08:11:04.843Z,-12.13
2016-03-08T08:11:21.640Z,-12.21
2016-03-08T08:11:35.406Z,-12.21
2016-03-08T08:11:49.126Z,-12.25
2016-03-08T08:12:16.954Z,-12.18
2016-03-08T08:12:30.579Z,-12.15
2016-03-08T08:12:44.206Z,-12.19
2016-03-08T08:12:57.925Z,-12.23
2016-03-08T08:13:11.691Z,-12.13
2016-03-08T08:13:25.394Z,-12.08
2016-03-08T08:13:39.097Z,-12.16
2016-03-08T08:13:52.804Z,-12.21
2016-03-08T08:14:06.382Z,-12.11
2016-03-08T08:14:20.210Z,-12.19
2016-03-08T08:14:34.148Z,-12.22
2016-03-08T08:14:47.681Z,-12.21
2016-03-08T08:15:00.634Z,-12.13
2016-03-08T08:15:14.416Z,-12.08
2016-03-08T08:15:28.166Z,-12.1
2016-03-08T08:15:41.997Z,-12.08
2016-03-08T08:15:55.887Z,-12.07
2016-03-08T08:16:09.512Z,-12.1
2016-03-08T08:16:26.262Z,-12.05
2016-03-08T08:16:39.215Z,-12.04
2016-03-08T08:16:53.281Z,-12
2016-03-08T08:17:07.140Z,-12.04
2016-03-08T08:17:20.890Z,-11.95
2016-03-08T08:17:34.781Z,-11.95
2016-03-08T08:17:48.533Z,-12.01
2016-03-08T08:18:02.424Z,-11.89
2016-03-08T08:18:16.142Z,-11.98
2016-03-08T08:18:29.830Z,-11.97
2016-03-08T08:18:43.661Z,-11.89
2016-03-08T08:18:57.427Z,-11.95
2016-03-08T08:19:11.130Z,-11.93
2016-03-08T08:19:24.911Z,-11.9
2016-03-08T08:19:41.710Z,-11.87
2016-03-08T08:19:55.585Z,-11.89
2016-03-08T08:20:09.397Z,-11.86
2016-03-08T08:20:23.288Z,-11.89
2016-03-08T08:20:40.038Z,-11.87
2016-03-08T08:20:53.870Z,-11.8
2016-03-08T08:21:07.433Z,-11.84
2016-03-08T08:21:21.339Z,-11.76
2016-03-08T08:21:35.042Z,-11.76
2016-03-08T08:21:49.044Z,-11.73
2016-03-08T08:22:02.075Z,-11.73
2016-03-08T08:22:15.778Z,-11.72
2016-03-08T08:22:28.716Z,-11.83
2016-03-08T08:22:41.671Z,-11.72
2016-03-08T08:22:55.374Z,-11.72
2016-03-08T08:23:09.390Z,-11.65
2016-03-08T08:23:23.030Z,-11.69
2016-03-08T08:23:36.702Z,-11.76
2016-03-08T08:23:50.440Z,-11.79
2016-03-08T08:24:04.205Z,-11.73
2016-03-08T08:24:17.908Z,-11.66
2016-03-08T08:24:31.471Z,-11.68
2016-03-08T08:24:45.255Z,-11.66
2016-03-08T08:24:59.021Z,-11.63
2016-03-08T08:25:13.099Z,-11.58
2016-03-08T08:25:26.927Z,-11.59
2016-03-08T08:25:40.552Z,-11.55
2016-03-08T08:25:57.352Z,-11.59
2016-03-08T08:26:11.117Z,-11.47
2016-03-08T08:26:24.852Z,-11.51
2016-03-08T08:26:38.461Z,-11.52
2016-03-08T08:26:52.152Z,-11.47
2016-03-08T08:27:05.870Z,-11.44
2016-03-08T08:27:19.605Z,-11.45
2016-03-08T08:27:33.464Z,-11.48
2016-03-08T08:27:47.497Z,-11.41
2016-03-08T08:28:01.294Z,-11.4
2016-03-08T08:28:15.060Z,-11.44
2016-03-08T08:28:28.701Z,-11.36
2016-03-08T08:28:42.594Z,-11.27
2016-03-08T08:28:56.219Z,-11.27
2016-03-08T08:29:09.844Z,-11.27
2016-03-08T08:29:23.532Z,-11.24
2016-03-08T08:29:37.125Z,-11.24
2016-03-08T08:29:50.800Z,-11.24
2016-03-08T08:30:04.488Z,-11.21
2016-03-08T08:30:18.144Z,-11.16
2016-03-08T08:30:31.785Z,-11.15
2016-03-08T08:30:45.427Z,-11.16
2016-03-08T08:30:59.005Z,-11.21
2016-03-08T08:31:12.630Z,-11.16
2016-03-08T08:31:26.318Z,-11.06
2016-03-08T08:31:39.974Z,-11.13
2016-03-08T08:31:53.665Z,-11.1
2016-03-08T08:32:07.321Z,-11.05
2016-03-08T08:32:20.430Z,-11.08
2016-03-08T08:32:34.102Z,-10.98
2016-03-08T08:32:47.715Z,-10.97
2016-03-08T08:33:01.433Z,-11.03
2016-03-08T08:33:15.152Z,-11.02
2016-03-08T08:33:28.043Z,-10.91
2016-03-08T08:33:41.935Z,-10.99
2016-03-08T08:33:55.748Z,-10.92
2016-03-08T08:34:09.467Z,-11.02
2016-03-08T08:34:23.404Z,-10.87
2016-03-08T08:34:37.092Z,-10.91
2016-03-08T08:34:50.735Z,-10.88
2016-03-08T08:35:04.391Z,-10.83
2016-03-08T08:35:18.048Z,-10.91
2016-03-08T08:35:31.798Z,-10.85
2016-03-08T08:35:45.488Z,-10.81
2016-03-08T08:35:59.160Z,-10.88
2016-03-08T08:36:12.894Z,-10.85
2016-03-08T08:36:26.551Z,-10.79
2016-03-08T08:36:39.379Z,-10.75
2016-03-08T08:36:53.006Z,-10.72
2016-03-08T08:37:05.896Z,-10.66
2016-03-08T08:37:19.490Z,-10.75
2016-03-08T08:37:33.271Z,-10.76
2016-03-08T08:37:47.071Z,-10.76
2016-03-08T08:38:00.696Z,-10.78
2016-03-08T08:38:14.431Z,-10.69
2016-03-08T08:38:28.493Z,-10.78
2016-03-08T08:38:56.418Z,-10.78
2016-03-08T08:39:10.121Z,-10.73
2016-03-08T08:39:23.996Z,-10.78
2016-03-08T08:39:37.840Z,-10.76
2016-03-08T08:39:51.530Z,-10.7
2016-03-08T08:40:08.218Z,-10.79
2016-03-08T08:40:21.984Z,-10.78
2016-03-08T08:40:35.796Z,-10.75
2016-03-08T08:40:49.877Z,-10.78
2016-03-08T08:41:04.143Z,-10.79
2016-03-08T08:41:17.830Z,-10.76
2016-03-08T08:41:31.908Z,-10.72
2016-03-08T08:41:45.707Z,-10.69
2016-03-08T08:41:59.676Z,-10.75
2016-03-08T08:42:13.442Z,-10.78
2016-03-08T08:42:27.082Z,-10.72
2016-03-08T08:42:40.035Z,-10.7
2016-03-08T08:42:53.710Z,-10.68
2016-03-08T08:43:07.460Z,-10.76
2016-03-08T08:43:21.163Z,-10.66
2016-03-08T08:43:35.054Z,-10.75
2016-03-08T08:43:48.884Z,-10.78
2016-03-08T08:44:02.697Z,-10.66
2016-03-08T08:44:16.337Z,-10.69
2016-03-08T08:44:30.165Z,-10.65
2016-03-08T08:44:43.997Z,-10.54
2016-03-08T08:44:57.825Z,-10.7
2016-03-08T08:45:11.637Z,-10.54
2016-03-08T08:45:28.575Z,-10.57
2016-03-08T08:45:42.389Z,-10.61
2016-03-08T08:45:56.030Z,-10.51
2016-03-08T08:46:09.827Z,-10.54
2016-03-08T08:46:23.452Z,-10.41
2016-03-08T08:46:37.280Z,-10.41
2016-03-08T08:46:51.048Z,-10.48
2016-03-08T08:47:04.814Z,-10.47
2016-03-08T08:47:18.627Z,-10.45
2016-03-08T08:47:32.830Z,-10.47
2016-03-08T08:47:46.598Z,-10.37
2016-03-08T08:48:00.676Z,-10.34
2016-03-08T08:48:14.801Z,-10.4
2016-03-08T08:48:28.567Z,-10.37
2016-03-08T08:48:42.647Z,-10.41
2016-03-08T08:48:56.335Z,-10.4
2016-03-08T08:49:10.116Z,-10.41
2016-03-08T08:49:24.007Z,-10.36
2016-03-08T08:49:37.897Z,-10.23
2016-03-08T08:49:51.650Z,-10.4
2016-03-08T08:50:05.744Z,-10.28
2016-03-08T08:50:19.869Z,-10.3
2016-03-08T08:50:34.056Z,-10.3
2016-03-08T08:50:47.888Z,-10.16
2016-03-08T08:51:04.638Z,-10.16
2016-03-08T08:51:19.028Z,-10.19
2016-03-08T08:51:32.903Z,-10.26
2016-03-08T08:51:46.609Z,-10.19
2016-03-08T08:52:00.672Z,-10.26
2016-03-08T08:52:14.562Z,-10.12
2016-03-08T08:52:28.391Z,-10.07
2016-03-08T08:52:42.299Z,-10.04
2016-03-08T08:52:56.111Z,-10.07
2016-03-08T08:53:09.955Z,-10.02
2016-03-08T08:53:23.752Z,-10.01
2016-03-08T08:53:37.518Z,-9.92
2016-03-08T08:53:51.364Z,-9.99
2016-03-08T08:54:05.442Z,-9.94
2016-03-08T08:54:19.192Z,-9.91
2016-03-08T08:54:33.005Z,-9.92
2016-03-08T08:54:46.774Z,-9.78
2016-03-08T08:55:00.539Z,-9.81
2016-03-08T08:55:14.367Z,-9.77
2016-03-08T08:55:28.133Z,-9.76
2016-03-08T08:55:42.027Z,-9.66
2016-03-08T08:55:58.823Z,-9.73
2016-03-08T08:56:12.652Z,-9.71
2016-03-08T08:56:26.605Z,-9.73
2016-03-08T08:56:40.433Z,-9.7
2016-03-08T08:56:54.247Z,-9.63
2016-03-08T08:57:08.154Z,-9.5
2016-03-08T08:57:22.075Z,-9.63
2016-03-08T08:57:35.857Z,-9.59
2016-03-08T08:57:52.610Z,-9.45
2016-03-08T08:58:06.485Z,-9.53
2016-03-08T08:58:20.313Z,-9.47
2016-03-08T08:58:34.203Z,-9.44
2016-03-08T08:58:48.019Z,-9.41
2016-03-08T08:59:01.800Z,-9.37
2016-03-08T08:59:15.488Z,-9.38
2016-03-08T08:59:29.410Z,-9.36
2016-03-08T08:59:43.287Z,-9.23
2016-03-08T08:59:57.130Z,-9.25
2016-03-08T09:00:13.990Z,-9.26
2016-03-08T09:00:27.802Z,-9.26
2016-03-08T09:00:41.586Z,-9.13
2016-03-08T09:00:54.774Z,-9.09
2016-03-08T09:01:08.665Z,-9.08
2016-03-08T09:01:22.493Z,-9.16
2016-03-08T09:01:36.383Z,-8.99
2016-03-08T09:01:50.324Z,-8.95
2016-03-08T09:02:04.214Z,-8.87
2016-03-08T09:02:18.089Z,-8.86
2016-03-08T09:02:31.996Z,-8.91
2016-03-08T09:02:45.873Z,-8.9
2016-03-08T09:03:02.982Z,-8.87
2016-03-08T09:03:16.873Z,-8.77
2016-03-08T09:03:30.623Z,-8.76
2016-03-08T09:03:44.704Z,-8.72
2016-03-08T09:03:58.344Z,-8.66
2016-03-08T09:04:12.344Z,-8.67
2016-03-08T09:04:26.298Z,-8.69
2016-03-08T09:04:40.313Z,-8.65
2016-03-08T09:04:54.206Z,-8.63
2016-03-08T09:05:08.284Z,-8.57
2016-03-08T09:05:22.440Z,-8.57
2016-03-08T09:05:36.300Z,-8.63
2016-03-08T09:05:50.022Z,-8.54
2016-03-08T09:06:03.710Z,-8.45
2016-03-08T09:06:17.304Z,-8.45
2016-03-08T09:06:31.132Z,-8.41
2016-03-08T09:06:44.884Z,-8.46
2016-03-08T09:06:58.649Z,-8.46
2016-03-08T09:07:12.602Z,-8.45
2016-03-08T09:07:26.415Z,-8.45
2016-03-08T09:07:40.181Z,-8.41
2016-03-08T09:07:54.012Z,-8.31
2016-03-08T09:08:08.152Z,-8.3
2016-03-08T09:08:21.230Z,-8.28
2016-03-08T09:08:35.059Z,-8.36
2016-03-08T09:08:48.890Z,-8.34
2016-03-08T09:09:02.577Z,-8.3
2016-03-08T09:09:16.421Z,-8.13
2016-03-08T09:09:33.093Z,-8.18
2016-03-08T09:09:46.954Z,-8.24
2016-03-08T09:10:00.798Z,-8.21
2016-03-08T09:10:14.954Z,-8.12
2016-03-08T09:10:29.048Z,-8.06
2016-03-08T09:10:42.942Z,-8.13
2016-03-08T09:10:56.660Z,-8.06
2016-03-08T09:11:13.410Z,-8.16
2016-03-08T09:11:27.051Z,-8.03
2016-03-08T09:11:40.817Z,-7.99
2016-03-08T09:11:54.601Z,-8.05
2016-03-08T09:12:08.320Z,-7.96
2016-03-08T09:12:21.320Z,-8.03
2016-03-08T09:12:35.085Z,-7.96
2016-03-08T09:12:48.884Z,-7.84
2016-03-08T09:13:02.665Z,-7.94
2016-03-08T09:13:16.743Z,-7.93
2016-03-08T09:13:30.860Z,-7.88
2016-03-08T09:13:44.644Z,-7.88
2016-03-08T09:13:58.456Z,-7.91
2016-03-08T09:14:12.222Z,-7.84
2016-03-08T09:14:25.988Z,-7.84
2016-03-08T09:14:39.753Z,-7.81
2016-03-08T09:14:53.569Z,-7.76
2016-03-08T09:15:07.412Z,-7.84
2016-03-08T09:15:21.100Z,-7.83
2016-03-08T09:15:34.866Z,-7.81
2016-03-08T09:15:51.603Z,-7.77
2016-03-08T09:16:05.337Z,-7.69
2016-03-08T09:16:18.947Z,-7.83
2016-03-08T09:16:32.775Z,-7.73
2016-03-08T09:16:46.605Z,-7.63
2016-03-08T09:17:00.621Z,-7.75
2016-03-08T09:17:14.261Z,-7.66
2016-03-08T09:17:27.839Z,-7.73
2016-03-08T09:17:41.605Z,-7.72
2016-03-08T09:17:55.435Z,-7.73
2016-03-08T09:18:09.310Z,-7.65
2016-03-08T09:18:23.060Z,-7.7
2016-03-08T09:18:36.654Z,-7.63
2016-03-08T09:18:50.345Z,-7.66
2016-03-08T09:19:04.017Z,-7.54
2016-03-08T09:19:17.642Z,-7.62
2016-03-08T09:19:31.470Z,-7.62
2016-03-08T09:19:45.285Z,-7.54
2016-03-08T09:19:59.050Z,-7.52
2016-03-08T09:20:12.754Z,-7.47
2016-03-08T09:20:26.535Z,-7.48
2016-03-08T09:20:40.285Z,-7.54
2016-03-08T09:20:53.928Z,-7.38
2016-03-08T09:21:07.647Z,-7.4
2016-03-08T09:21:21.397Z,-7.28
2016-03-08T09:21:35.053Z,-7.34
2016-03-08T09:21:48.869Z,-7.4
2016-03-08T09:22:02.635Z,-7.37
2016-03-08T09:22:16.385Z,-7.34
2016-03-08T09:22:30.150Z,-7.36
2016-03-08T09:22:43.246Z,-7.19
2016-03-08T09:22:57.012Z,-7.19
2016-03-08T09:23:10.090Z,-7.19
2016-03-08T09:23:26.824Z,-7.1
2016-03-08T09:23:40.902Z,-7.07
2016-03-08T09:23:54.624Z,-7.07
2016-03-08T09:24:08.374Z,-7.06
2016-03-08T09:24:22.077Z,-7.15
2016-03-08T09:24:35.905Z,-7.01
2016-03-08T09:24:49.611Z,-7.02
2016-03-08T09:25:03.502Z,-6.98
2016-03-08T09:25:17.143Z,-6.97
2016-03-08T09:25:30.955Z,-6.94
2016-03-08T09:25:44.849Z,-6.91
2016-03-08T09:25:58.599Z,-6.89
2016-03-08T09:26:12.427Z,-6.88
2016-03-08T09:26:26.255Z,-6.88
2016-03-08T09:26:39.458Z,-6.87
2016-03-08T09:26:53.163Z,-6.81
2016-03-08T09:27:07.116Z,-6.76
2016-03-08T09:27:20.882Z,-6.65
2016-03-08T09:27:34.554Z,-6.65
2016-03-08T09:27:47.854Z,-6.71
2016-03-08T09:28:02.307Z,-6.54
2016-03-08T09:28:16.369Z,-6.67
2016-03-08T09:28:30.072Z,-6.59
2016-03-08T09:28:43.654Z,-6.6
2016-03-08T09:28:57.482Z,-6.55
2016-03-08T09:29:11.247Z,-6.51
2016-03-08T09:29:25.310Z,-6.4
2016-03-08T09:29:39.091Z,-6.44
2016-03-08T09:29:52.718Z,-6.4
2016-03-08T09:30:06.452Z,-6.34
2016-03-08T09:30:20.124Z,-6.44
2016-03-08T09:30:33.077Z,-6.36
2016-03-08T09:30:46.940Z,-6.37
2016-03-08T09:31:00.690Z,-6.3
2016-03-08T09:31:14.471Z,-6.37
2016-03-08T09:31:27.409Z,-6.31
2016-03-08T09:31:41.659Z,-6.26
2016-03-08T09:31:55.379Z,-6.31
2016-03-08T09:32:08.973Z,-6.25
2016-03-08T09:32:22.661Z,-6.2
2016-03-08T09:32:35.489Z,-6.23
2016-03-08T09:32:49.210Z,-6.16
2016-03-08T09:33:02.976Z,-6.15
2016-03-08T09:33:16.585Z,-6.18
2016-03-08T09:33:30.273Z,-6.12
2016-03-08T09:33:44.056Z,-6.07
2016-03-08T09:33:57.822Z,-6.02
2016-03-08T09:34:11.509Z,-6.07
2016-03-08T09:34:25.103Z,-6.05
2016-03-08T09:34:38.056Z,-6.07
2016-03-08T09:34:51.748Z,-6.01
2016-03-08T09:35:05.529Z,-5.94
2016-03-08T09:35:19.420Z,-5.91
2016-03-08T09:35:33.170Z,-5.92
2016-03-08T09:35:46.718Z,-5.84
2016-03-08T09:35:59.718Z,-5.86
2016-03-08T09:36:13.359Z,-5.81
2016-03-08T09:36:26.375Z,-5.86
2016-03-08T09:36:39.203Z,-5.74
2016-03-08T09:36:52.908Z,-5.81
2016-03-08T09:37:06.595Z,-5.68
2016-03-08T09:37:20.299Z,-5.69
2016-03-08T09:37:33.986Z,-5.65
2016-03-08T09:37:47.520Z,-5.6
2016-03-08T09:38:01.098Z,-5.66
2016-03-08T09:38:14.692Z,-5.59
2016-03-08T09:38:27.708Z,-5.55
2016-03-08T09:38:41.411Z,-5.58
2016-03-08T09:38:55.148Z,-5.55
2016-03-08T09:39:08.883Z,-5.55
2016-03-08T09:39:21.789Z,-5.55
2016-03-08T09:39:35.555Z,-5.45
2016-03-08T09:39:49.558Z,-5.45
2016-03-08T09:40:03.323Z,-5.41
2016-03-08T09:40:16.339Z,-5.38
2016-03-08T09:40:29.870Z,-5.29
2016-03-08T09:40:43.482Z,-5.37
2016-03-08T09:40:57.123Z,-5.48
2016-03-08T09:41:24.123Z,-5.27
2016-03-08T09:41:37.873Z,-5.27
2016-03-08T09:41:51.828Z,-5.27
2016-03-08T09:42:05.031Z,-5.24
2016-03-08T09:42:18.969Z,-5.26
2016-03-08T09:42:32.594Z,-5.17
2016-03-08T09:42:46.300Z,-5.23
2016-03-08T09:42:59.894Z,-5.1
2016-03-08T09:43:16.769Z,-5.14
2016-03-08T09:43:30.534Z,-5.05
2016-03-08T09:43:44.177Z,-5.1
2016-03-08T09:43:57.943Z,-5.08
2016-03-08T09:44:11.646Z,-4.98
2016-03-08T09:44:25.458Z,-5.05
2016-03-08T09:44:39.099Z,-5.01
2016-03-08T09:44:52.868Z,-5
2016-03-08T09:45:06.618Z,-4.97
2016-03-08T09:45:20.400Z,-4.93
2016-03-08T09:45:34.165Z,-4.98
2016-03-08T09:45:47.980Z,-4.84
2016-03-08T09:46:01.699Z,-5
2016-03-08T09:46:15.464Z,-5.01
2016-03-08T09:46:29.089Z,-4.86
2016-03-08T09:46:42.919Z,-4.84
2016-03-08T09:46:56.810Z,-4.87
2016-03-08T09:47:10.576Z,-4.75
2016-03-08T09:47:24.341Z,-4.79
2016-03-08T09:47:38.294Z,-4.8
2016-03-08T09:47:52.126Z,-4.79
2016-03-08T09:48:05.830Z,-4.76
2016-03-08T09:48:19.642Z,-4.76
2016-03-08T09:48:33.283Z,-4.82
2016-03-08T09:48:46.988Z,-4.8
2016-03-08T09:49:00.722Z,-4.76
2016-03-08T09:49:14.519Z,-4.79
2016-03-08T09:49:28.394Z,-4.8
2016-03-08T09:49:42.491Z,-4.68
2016-03-08T09:49:56.256Z,-4.68
2016-03-08T09:50:10.069Z,-4.8
2016-03-08T09:50:23.022Z,-4.69
2016-03-08T09:50:36.788Z,-4.71
2016-03-08T09:50:50.572Z,-4.68
2016-03-08T09:51:04.150Z,-4.68
2016-03-08T09:51:17.978Z,-4.72
2016-03-08T09:51:31.666Z,-4.71
2016-03-08T09:51:45.433Z,-4.72
2016-03-08T09:51:59.261Z,-4.71
2016-03-08T09:52:13.136Z,-4.69
2016-03-08T09:52:26.965Z,-4.66
2016-03-08T09:52:40.605Z,-4.66
2016-03-08T09:52:54.327Z,-4.62
2016-03-08T09:53:08.139Z,-4.65
2016-03-08T09:53:21.968Z,-4.61
2016-03-08T09:53:35.655Z,-4.59
2016-03-08T09:53:48.688Z,-4.59
2016-03-08T09:54:02.282Z,-4.55
2016-03-08T09:54:15.907Z,-4.68
2016-03-08T09:54:29.595Z,-4.54
2016-03-08T09:54:43.660Z,-4.59
2016-03-08T09:54:57.582Z,-4.62
2016-03-08T09:55:11.129Z,-4.65
2016-03-08T09:55:23.988Z,-4.71
2016-03-08T09:55:36.816Z,-4.72
2016-03-08T09:55:50.366Z,-4.66
2016-03-08T09:56:03.991Z,-4.75
2016-03-08T09:56:17.585Z,-4.69
2016-03-08T09:56:31.382Z,-4.71
2016-03-08T09:56:45.024Z,-4.68
2016-03-08T09:56:58.478Z,-4.68
2016-03-08T09:57:12.056Z,-4.68
2016-03-08T09:57:25.884Z,-4.66
2016-03-08T09:57:39.509Z,-4.72
2016-03-08T09:57:53.527Z,-4.69
2016-03-08T09:58:07.231Z,-4.66
2016-03-08T09:58:34.199Z,-4.53
2016-03-08T09:58:48.030Z,-4.55
2016-03-08T09:59:00.859Z,-4.54
2016-03-08T09:59:14.437Z,-4.51
2016-03-08T09:59:28.359Z,-4.54
2016-03-08T09:59:42.015Z,-4.53
2016-03-08T09:59:55.549Z,-4.47
2016-03-08T10:00:09.174Z,-4.47
2016-03-08T10:00:22.877Z,-4.51
2016-03-08T10:00:35.158Z,-4.48
2016-03-08T10:00:48.864Z,-4.53
2016-03-08T10:01:05.614Z,-4.51
2016-03-08T10:01:19.207Z,-4.5
2016-03-08T10:01:32.832Z,-4.44
2016-03-08T10:01:45.804Z,-4.51
2016-03-08T10:01:59.538Z,-4.41
2016-03-08T10:02:13.257Z,-4.5
2016-03-08T10:02:26.945Z,-4.44
2016-03-08T10:02:40.601Z,-4.51
2016-03-08T10:02:54.369Z,-4.5
2016-03-08T10:03:08.134Z,-4.5
2016-03-08T10:03:21.962Z,-4.37
2016-03-08T10:03:35.665Z,-4.55
2016-03-08T10:03:48.685Z,-4.41
2016-03-08T10:04:02.451Z,-4.45
2016-03-08T10:04:16.388Z,-4.5
2016-03-08T10:04:30.279Z,-4.5
2016-03-08T10:04:44.046Z,-4.54
2016-03-08T10:04:57.812Z,-4.44
2016-03-08T10:05:11.640Z,-4.53
2016-03-08T10:05:25.468Z,-4.51
2016-03-08T10:05:39.171Z,-4.53
2016-03-08T10:05:53.565Z,-4.51
2016-03-08T10:06:07.315Z,-4.51
2016-03-08T10:06:21.143Z,-4.53
2016-03-08T10:06:35.831Z,-4.53
2016-03-08T10:06:49.913Z,-4.37
2016-03-08T10:07:03.632Z,-4.51
2016-03-08T10:07:17.725Z,-4.47
2016-03-08T10:07:31.397Z,-4.47
2016-03-08T10:07:45.290Z,-4.48
2016-03-08T10:07:59.180Z,-4.44
2016-03-08T10:08:13.009Z,-4.53
2016-03-08T10:08:29.790Z,-4.5
2016-03-08T10:08:43.574Z,-4.37
2016-03-08T10:08:57.074Z,-4.47
2016-03-08T10:09:10.902Z,-4.53
2016-03-08T10:09:24.683Z,-4.51
2016-03-08T10:09:38.605Z,-4.45
2016-03-08T10:09:52.374Z,-4.47
2016-03-08T10:10:05.265Z,-4.5
2016-03-08T10:10:19.046Z,-4.48
2016-03-08T10:10:32.874Z,-4.53
2016-03-08T10:10:47.017Z,-4.55
2016-03-08T10:11:00.782Z,-4.59
2016-03-08T10:11:14.595Z,-4.54
2016-03-08T10:11:28.313Z,-4.54
2016-03-08T10:11:41.392Z,-4.59
2016-03-08T10:11:55.160Z,-4.55
2016-03-08T10:12:08.785Z,-4.69
2016-03-08T10:12:21.816Z,-4.66
2016-03-08T10:12:35.629Z,-4.65
2016-03-08T10:12:49.460Z,-4.68
2016-03-08T10:13:03.241Z,-4.65
2016-03-08T10:13:17.319Z,-4.63
2016-03-08T10:13:31.085Z,-4.71
2016-03-08T10:13:44.837Z,-4.68
2016-03-08T10:13:58.665Z,-4.69
2016-03-08T10:14:12.493Z,-4.76
2016-03-08T10:14:26.103Z,-4.87
2016-03-08T10:14:39.821Z,-4.79
2016-03-08T10:14:53.903Z,-4.82
2016-03-08T10:15:07.574Z,-4.82
2016-03-08T10:15:21.309Z,-4.79
2016-03-08T10:15:35.028Z,-4.86
2016-03-08T10:15:48.774Z,-4.84
2016-03-08T10:16:02.539Z,-4.89
2016-03-08T10:16:16.367Z,-5
2016-03-08T10:16:30.133Z,-4.89
2016-03-08T10:16:43.814Z,-4.93
2016-03-08T10:16:56.908Z,-4.97
2016-03-08T10:17:10.674Z,-4.93
2016-03-08T10:17:24.486Z,-4.93
2016-03-08T10:17:38.018Z,-4.97
2016-03-08T10:17:51.885Z,-5.01
2016-03-08T10:18:05.650Z,-4.98
2016-03-08T10:18:19.541Z,-5.01
2016-03-08T10:18:33.369Z,-4.94
2016-03-08T10:18:47.112Z,-4.98
2016-03-08T10:19:00.878Z,-5.01
2016-03-08T10:19:14.784Z,-5.02
2016-03-08T10:19:28.534Z,-5.05
2016-03-08T10:19:42.378Z,-5.04
2016-03-08T10:19:56.058Z,-5.04
2016-03-08T10:20:10.136Z,-5.11
2016-03-08T10:20:55.335Z,-5.11
2016-03-08T10:21:09.226Z,-5.19
2016-03-08T10:21:23.132Z,-5.17
2016-03-08T10:21:36.992Z,-5.11
2016-03-08T10:21:53.601Z,-5.11
2016-03-08T10:22:07.492Z,-5.14
2016-03-08T10:22:21.398Z,-5.19
2016-03-08T10:22:35.398Z,-5.22
2016-03-08T10:22:49.162Z,-5.17
2016-03-08T10:23:03.037Z,-5.14
2016-03-08T10:23:16.741Z,-5.12
2016-03-08T10:23:30.569Z,-5.17
2016-03-08T10:23:44.660Z,-5.2
2016-03-08T10:23:58.598Z,-5.12
2016-03-08T10:24:12.739Z,-5.11
2016-03-08T10:24:26.614Z,-5.19
2016-03-08T10:24:40.379Z,-5.12
2016-03-08T10:24:54.145Z,-5.24
2016-03-08T10:25:08.035Z,-5.12
2016-03-08T10:25:21.864Z,-5.24
2016-03-08T10:25:36.067Z,-5.14
2016-03-08T10:25:49.880Z,-5.19
2016-03-08T10:26:03.724Z,-5.17
2016-03-08T10:26:17.677Z,-5.23
2016-03-08T10:26:31.505Z,-5.29
2016-03-08T10:26:45.303Z,-5.22
2016-03-08T10:26:59.084Z,-5.26
2016-03-08T10:27:13.350Z,-5.27
2016-03-08T10:27:27.366Z,-5.31
2016-03-08T10:27:41.256Z,-5.29
2016-03-08T10:27:55.086Z,-5.26
2016-03-08T10:28:09.118Z,-5.27
2016-03-08T10:28:22.977Z,-5.29
2016-03-08T10:28:36.868Z,-5.29
2016-03-08T10:28:50.682Z,-5.26
2016-03-08T10:29:04.588Z,-5.26
2016-03-08T10:29:18.479Z,-5.23
2016-03-08T10:29:32.666Z,-5.24
2016-03-08T10:29:47.183Z,-5.24
2016-03-08T10:30:01.058Z,-5.3
2016-03-08T10:30:14.949Z,-5.14
2016-03-08T10:30:28.824Z,-5.23
2016-03-08T10:30:42.589Z,-5.19
2016-03-08T10:30:56.498Z,-5.2
2016-03-08T10:31:10.248Z,-5.23
2016-03-08T10:31:24.263Z,-5.24
2016-03-08T10:31:38.294Z,-5.19
2016-03-08T10:31:52.031Z,-5.12
2016-03-08T10:32:06.218Z,-5.24
2016-03-08T10:32:20.093Z,-5.27
2016-03-08T10:32:33.078Z,-5.29
2016-03-08T10:32:46.892Z,-5.24
2016-03-08T10:33:00.736Z,-5.29
2016-03-08T10:33:28.877Z,-5.33
2016-03-08T10:33:42.627Z,-5.24
2016-03-08T10:33:56.347Z,-5.27
2016-03-08T10:34:10.050Z,-5.4
2016-03-08T10:34:23.863Z,-5.37
2016-03-08T10:34:37.691Z,-5.42
2016-03-08T10:34:51.835Z,-5.38
2016-03-08T10:35:05.491Z,-5.4
2016-03-08T10:35:19.241Z,-5.33
2016-03-08T10:35:33.007Z,-5.42
2016-03-08T10:35:46.759Z,-5.4
2016-03-08T10:36:00.524Z,-5.58
2016-03-08T10:36:14.821Z,-5.52
2016-03-08T10:36:28.555Z,-5.55
2016-03-08T10:36:42.493Z,-5.59
2016-03-08T10:36:56.574Z,-5.52
2016-03-08T10:37:10.465Z,-5.5
2016-03-08T10:37:24.308Z,-5.52
2016-03-08T10:37:38.121Z,-5.51
2016-03-08T10:37:52.029Z,-5.51
2016-03-08T10:38:06.154Z,-5.65
2016-03-08T10:38:19.982Z,-5.5
2016-03-08T10:38:33.920Z,-5.5